Decoded Metar for SKRG (RIO NEGRO in COLOMBIA) (IATA:MDE) | Meteo·Mobile Aviation Weather
aviador You're here:

SKRG Decoded Metar

RIO NEGRO in COLOMBIA
Report Time2018-09-23 12:00:00
UTC Time2018-09-23 13:00:34
Flight Rules mvfr MVFR
WindCalm
Visibility6000 m
Phenomena:Vicinity Fog
Clouds:Scattered 006 Hf
Scattered 200 Hf
Expected CloudBase > 400 ft AGL from Temp-Dew spread
CeilingNone
Temp14°C (ISA +13)
Dew Point13°C (94% RH)
QNH1024 hPa
Density Alt8,383 ft
Elevation7,020 ft
Report Wrong Elevation
Raw Report
SKRG 231200Z 00000KT 6000 VCFG SCT006 SCT200 14/13 A3024 RMK VCFG
SE/S=

Extra information for SKRG:More info

Metar Taf Metar & Taf Last 4 Metars F.Rules Stats Wind Profile Meteogram Temp Stats Airport Information Weather charts Add Link Nearby VenuesMetar ALERT Operation Metar Decoded Social comments